createdAt,value
2023-07-11T00:00:51.534Z,8.00
2023-07-11T00:03:18.092Z,4.00
2023-07-11T00:05:44.718Z,7.75
2023-07-11T00:08:11.256Z,5.20
2023-07-11T00:10:37.754Z,3.03
2023-07-11T00:13:04.213Z,3.92
2023-07-11T00:15:30.759Z,4.35
2023-07-11T00:17:57.304Z,7.13
2023-07-11T00:20:24.008Z,5.00
2023-07-11T00:22:50.743Z,4.63
2023-07-11T00:25:17.279Z,3.30
2023-07-11T00:27:43.826Z,4.07
2023-07-11T00:30:10.902Z,5.90
2023-07-11T00:32:37.495Z,8.57
2023-07-11T00:35:04.367Z,7.10
2023-07-11T00:37:31.070Z,3.75
2023-07-11T00:39:57.533Z,6.32
2023-07-11T00:42:25.639Z,7.30
2023-07-11T00:44:59.087Z,7.85
2023-07-11T00:47:27.740Z,5.82
2023-07-11T00:49:59.021Z,7.45
2023-07-11T00:52:27.897Z,5.63
2023-07-11T00:54:58.200Z,5.47
2023-07-11T00:57:27.757Z,2.50
2023-07-11T00:59:54.395Z,5.53
2023-07-11T01:02:26.799Z,4.70
2023-07-11T01:04:53.499Z,6.32
2023-07-11T01:07:26.164Z,3.90
2023-07-11T01:09:53.019Z,4.05
2023-07-11T01:12:20.266Z,5.43
2023-07-11T01:14:49.227Z,6.60
2023-07-11T01:17:28.870Z,4.72
2023-07-11T01:19:56.578Z,3.22
2023-07-11T01:22:24.570Z,6.22
2023-07-11T01:24:52.182Z,6.45
2023-07-11T01:27:21.664Z,10.90
2023-07-11T01:29:50.191Z,6.53
2023-07-11T01:32:17.920Z,4.65
2023-07-11T01:34:44.599Z,4.57
2023-07-11T01:37:11.387Z,4.32
2023-07-11T01:39:38.181Z,2.85
2023-07-11T01:42:05.306Z,3.78
2023-07-11T01:44:32.338Z,5.07
2023-07-11T01:47:03.368Z,4.63
2023-07-11T01:49:30.370Z,5.72
2023-07-11T01:52:23.996Z,4.55
2023-07-11T01:54:51.662Z,5.47
2023-07-11T01:57:18.610Z,7.85
2023-07-11T01:59:47.419Z,8.30
2023-07-11T02:02:13.983Z,7.82
2023-07-11T02:04:40.516Z,6.53
2023-07-11T02:07:07.460Z,10.55
2023-07-11T02:09:34.356Z,6.40
2023-07-11T02:12:00.803Z,5.53
2023-07-11T02:14:27.280Z,5.85
2023-07-11T02:16:54.535Z,6.45
2023-07-11T02:19:23.077Z,4.03
2023-07-11T02:21:50.000Z,6.93
2023-07-11T02:24:18.288Z,5.35
2023-07-11T02:26:45.396Z,6.05
2023-07-11T02:29:12.040Z,5.63
2023-07-11T02:31:40.096Z,6.30
2023-07-11T02:34:06.730Z,8.65
2023-07-11T02:36:33.575Z,4.63
2023-07-11T02:39:00.050Z,7.10
2023-07-11T02:41:27.073Z,9.25
2023-07-11T02:43:53.885Z,7.57
2023-07-11T02:46:20.908Z,5.97
2023-07-11T02:48:49.301Z,10.25
2023-07-11T02:51:15.846Z,4.80
2023-07-11T02:53:42.362Z,4.97
2023-07-11T02:56:09.039Z,4.43
2023-07-11T02:58:35.774Z,5.47
2023-07-11T03:01:03.441Z,5.75
2023-07-11T03:03:30.045Z,5.75
2023-07-11T03:05:57.224Z,9.18
2023-07-11T03:08:23.920Z,5.00
2023-07-11T03:10:50.722Z,5.38
2023-07-11T03:13:19.057Z,4.97
2023-07-11T03:15:45.673Z,6.43
2023-07-11T03:18:14.772Z,8.40
2023-07-11T03:20:43.099Z,5.97
2023-07-11T03:23:12.122Z,6.53
2023-07-11T03:25:38.848Z,5.80
2023-07-11T03:28:05.592Z,5.82
2023-07-11T03:30:32.886Z,6.97
2023-07-11T03:32:59.386Z,3.95
2023-07-11T03:35:29.020Z,5.53
2023-07-11T03:37:55.616Z,5.32
2023-07-11T03:40:22.155Z,6.05
2023-07-11T03:42:49.037Z,6.40
2023-07-11T03:45:15.762Z,7.47
2023-07-11T03:47:43.497Z,5.32
2023-07-11T03:50:10.836Z,8.27
2023-07-11T03:52:37.382Z,5.53
2023-07-11T03:55:04.122Z,6.53
2023-07-11T03:57:30.662Z,5.65
2023-07-11T03:59:58.269Z,9.25
2023-07-11T04:02:25.295Z,9.15
2023-07-11T04:04:51.816Z,4.88
2023-07-11T04:07:18.322Z,8.63
2023-07-11T04:09:44.889Z,7.72
2023-07-11T04:12:11.738Z,8.95
2023-07-11T04:14:39.690Z,4.95
2023-07-11T04:17:07.449Z,6.50
2023-07-11T04:19:34.049Z,6.43
2023-07-11T04:22:00.505Z,6.88
2023-07-11T04:24:27.545Z,6.10
2023-07-11T04:26:53.997Z,11.80
2023-07-11T04:29:20.534Z,8.35
2023-07-11T04:31:47.056Z,12.45
2023-07-11T04:34:13.553Z,13.30
2023-07-11T04:36:40.030Z,7.75
2023-07-11T04:39:06.625Z,7.85
2023-07-11T04:41:33.153Z,8.02
2023-07-11T04:44:00.660Z,12.95
2023-07-11T04:46:28.256Z,9.65
2023-07-11T04:48:54.758Z,12.75
2023-07-11T04:51:21.225Z,9.73
2023-07-11T04:53:47.778Z,13.02
2023-07-11T04:56:14.573Z,15.73
2023-07-11T04:58:41.341Z,14.82
2023-07-11T05:01:13.541Z,13.77
2023-07-11T05:03:40.601Z,10.75
2023-07-11T05:06:08.790Z,13.70
2023-07-11T05:08:35.768Z,16.13
2023-07-11T05:11:08.249Z,12.65
2023-07-11T05:13:36.584Z,16.80
2023-07-11T05:16:06.673Z,14.38
2023-07-11T05:18:36.186Z,21.02
2023-07-11T05:21:02.640Z,16.23
2023-07-11T05:23:31.368Z,17.83
2023-07-11T05:25:57.996Z,22.30
2023-07-11T05:28:28.288Z,20.98
2023-07-11T05:30:55.413Z,19.88
2023-07-11T05:33:21.857Z,21.05
2023-07-11T05:35:59.092Z,17.83
2023-07-11T05:38:25.728Z,19.17
2023-07-11T05:40:52.540Z,22.00
2023-07-11T05:43:19.006Z,24.08
2023-07-11T05:45:46.139Z,17.77
2023-07-11T05:48:13.503Z,21.05
2023-07-11T05:50:39.987Z,31.08
2023-07-11T05:53:06.893Z,26.15
2023-07-11T05:55:33.357Z,21.45
2023-07-11T05:57:59.875Z,25.88
2023-07-11T06:00:26.577Z,23.38
2023-07-11T06:02:53.146Z,27.90
2023-07-11T06:05:20.186Z,21.40
2023-07-11T06:07:48.387Z,20.63
2023-07-11T06:10:14.985Z,21.60
2023-07-11T06:12:41.494Z,17.80
2023-07-11T06:15:08.354Z,26.05
2023-07-11T06:17:34.920Z,20.73
2023-07-11T06:20:01.673Z,19.98
2023-07-11T06:22:28.202Z,25.48
2023-07-11T06:24:54.831Z,20.20
2023-07-11T06:27:21.332Z,22.42
2023-07-11T06:29:48.048Z,21.80
2023-07-11T06:32:14.619Z,17.83
2023-07-11T06:34:41.144Z,19.52
2023-07-11T06:37:07.649Z,20.05
2023-07-11T06:39:34.112Z,17.88
2023-07-11T06:42:00.571Z,18.67
2023-07-11T06:44:27.056Z,19.30
2023-07-11T06:46:54.072Z,24.05
2023-07-11T06:49:20.570Z,16.42
2023-07-11T06:51:47.104Z,13.82
2023-07-11T06:54:13.579Z,17.33
2023-07-11T06:56:40.128Z,15.80
2023-07-11T06:59:06.610Z,17.80
2023-07-11T07:04:03.980Z,13.52
2023-07-11T07:06:32.226Z,19.70
2023-07-11T07:08:58.698Z,15.48
2023-07-11T07:11:25.214Z,15.77
2023-07-11T07:14:04.749Z,17.27
2023-07-11T07:16:37.116Z,12.00
2023-07-11T07:19:04.954Z,13.93
2023-07-11T07:21:31.782Z,12.45
2023-07-11T07:23:58.510Z,11.60
2023-07-11T07:26:25.146Z,14.02
2023-07-11T07:28:51.932Z,12.77
2023-07-11T07:31:18.512Z,15.63
2023-07-11T07:33:45.070Z,14.32
2023-07-11T07:36:13.072Z,12.95
2023-07-11T07:38:40.580Z,14.57
2023-07-11T07:41:10.064Z,10.73
2023-07-11T07:43:37.599Z,10.02
2023-07-11T07:46:05.451Z,10.27
2023-07-11T07:48:32.104Z,11.00
2023-07-11T07:51:19.011Z,11.50
2023-07-11T07:53:45.623Z,10.98
2023-07-11T07:56:20.510Z,9.48
2023-07-11T07:58:48.111Z,11.15
2023-07-11T08:01:16.243Z,7.93
2023-07-11T08:03:43.177Z,10.38
2023-07-11T08:08:40.593Z,9.70
2023-07-11T08:11:08.500Z,8.63
2023-07-11T08:13:57.045Z,8.55
2023-07-11T08:18:55.352Z,8.32
2023-07-11T08:21:21.917Z,7.47
2023-07-11T08:23:48.374Z,8.80
2023-07-11T08:26:15.045Z,7.15
2023-07-11T08:28:43.001Z,6.60
2023-07-11T08:31:11.393Z,11.07
2023-07-11T08:33:40.497Z,10.35
2023-07-11T08:36:07.010Z,7.35
2023-07-11T08:38:33.491Z,6.60
2023-07-11T08:41:28.692Z,8.23
2023-07-11T08:44:03.938Z,12.75
2023-07-11T08:46:34.449Z,10.55
2023-07-11T08:49:01.878Z,8.35
2023-07-11T08:51:34.387Z,11.32
2023-07-11T08:54:08.022Z,7.15
2023-07-11T08:56:42.065Z,9.80
2023-07-11T08:59:17.238Z,10.27
2023-07-11T09:02:03.749Z,7.95
2023-07-11T09:04:31.409Z,10.05
2023-07-11T09:07:07.528Z,7.60
2023-07-11T09:09:35.217Z,7.75
2023-07-11T09:12:21.197Z,8.88
2023-07-11T09:15:02.896Z,8.90
2023-07-11T09:18:07.830Z,11.95
2023-07-11T09:20:44.116Z,12.70
2023-07-11T09:23:40.130Z,7.88
2023-07-11T09:26:11.314Z,9.18
2023-07-11T09:28:39.362Z,16.50
2023-07-11T09:31:15.074Z,10.00
2023-07-11T09:33:45.418Z,11.77
2023-07-11T09:36:35.294Z,10.82
2023-07-11T09:39:25.380Z,8.27
2023-07-11T09:42:10.443Z,13.10
2023-07-11T09:44:38.180Z,8.20
2023-07-11T09:47:18.241Z,9.05
2023-07-11T09:49:46.181Z,12.27
2023-07-11T09:52:27.221Z,6.97
2023-07-11T09:55:07.194Z,6.53
2023-07-11T09:57:35.189Z,11.98
2023-07-11T10:00:20.876Z,11.20
2023-07-11T10:02:49.197Z,7.43
2023-07-11T10:05:22.330Z,6.97
2023-07-11T10:08:14.848Z,7.25
2023-07-11T10:10:52.608Z,9.40
2023-07-11T10:13:26.531Z,8.63
2023-07-11T10:16:00.164Z,10.82
2023-07-11T10:18:32.282Z,8.43
2023-07-11T10:21:07.453Z,9.50
2023-07-11T10:23:36.462Z,12.05
2023-07-11T10:26:21.373Z,7.95
2023-07-11T10:29:19.709Z,8.77
2023-07-11T10:32:01.305Z,6.28
2023-07-11T10:34:48.782Z,11.25
2023-07-11T10:37:40.657Z,11.95
2023-07-11T10:40:25.527Z,10.80
2023-07-11T10:43:18.527Z,8.80
2023-07-11T10:45:46.922Z,6.57
2023-07-11T10:48:23.232Z,8.27
2023-07-11T10:51:05.199Z,8.43
2023-07-11T10:53:45.155Z,9.13
2023-07-11T10:56:24.768Z,7.75
2023-07-11T10:58:51.813Z,10.48
2023-07-11T11:01:30.438Z,8.48
2023-07-11T11:04:44.803Z,9.77
2023-07-11T11:07:32.229Z,9.88
2023-07-11T11:10:11.139Z,8.35
2023-07-11T11:13:12.968Z,12.43
2023-07-11T11:15:43.833Z,7.97
2023-07-11T11:21:19.659Z,7.82
2023-07-11T11:24:05.985Z,10.88
2023-07-11T11:26:42.165Z,6.80
2023-07-11T11:29:30.536Z,11.23
2023-07-11T11:32:17.165Z,11.30
2023-07-11T11:35:04.048Z,8.27
2023-07-11T11:37:53.727Z,11.32
2023-07-11T11:40:23.074Z,7.40
2023-07-11T11:43:02.468Z,8.73
2023-07-11T11:45:58.622Z,9.15
2023-07-11T11:50:57.730Z,8.20
2023-07-11T11:53:47.667Z,8.40
2023-07-11T11:56:23.117Z,6.75
2023-07-11T11:58:59.891Z,8.57
2023-07-11T12:01:35.921Z,7.20
2023-07-11T12:04:08.679Z,8.50
2023-07-11T12:06:36.127Z,14.38
2023-07-11T12:09:18.239Z,7.43
2023-07-11T12:12:06.208Z,8.65
2023-07-11T12:14:44.339Z,13.63
2023-07-11T12:17:33.066Z,8.50
2023-07-11T12:20:03.049Z,9.40
2023-07-11T12:22:38.519Z,7.53
2023-07-11T12:25:07.927Z,8.55
2023-07-11T12:27:34.591Z,9.35
2023-07-11T12:30:14.319Z,12.23
2023-07-11T12:32:47.144Z,10.82
2023-07-11T12:35:17.620Z,11.30
2023-07-11T12:38:00.443Z,6.93
2023-07-11T12:41:04.473Z,7.97
2023-07-11T12:43:34.357Z,9.35
2023-07-11T12:46:24.005Z,6.72
2023-07-11T12:48:51.416Z,10.05
2023-07-11T12:51:35.721Z,9.23
2023-07-11T12:54:06.781Z,10.13
2023-07-11T12:56:33.233Z,8.75
2023-07-11T12:58:59.743Z,9.13
2023-07-11T13:01:26.592Z,6.05
2023-07-11T13:03:53.098Z,8.68
2023-07-11T13:06:27.862Z,8.00
2023-07-11T13:08:56.832Z,10.20
2023-07-11T13:11:28.537Z,16.05
2023-07-11T13:13:55.722Z,6.70
2023-07-11T13:16:25.841Z,8.80
2023-07-11T13:18:53.405Z,7.30
2023-07-11T13:21:20.745Z,9.38
2023-07-11T13:23:47.473Z,8.90
2023-07-11T13:26:21.297Z,7.15
2023-07-11T13:29:02.355Z,8.00
2023-07-11T13:31:32.244Z,9.98
2023-07-11T13:34:04.027Z,13.57
2023-07-11T13:39:04.408Z,9.77
2023-07-11T13:41:40.572Z,7.93
2023-07-11T13:44:16.953Z,9.93
2023-07-11T13:46:44.630Z,12.20
2023-07-11T13:49:20.232Z,9.85
2023-07-11T13:51:47.212Z,10.98
2023-07-11T13:54:24.852Z,8.45
2023-07-11T13:56:51.413Z,7.20
2023-07-11T13:59:18.530Z,10.38
2023-07-11T14:01:46.085Z,9.23
2023-07-11T14:04:21.276Z,12.75
2023-07-11T14:06:48.093Z,10.30
2023-07-11T14:09:15.180Z,10.02
2023-07-11T14:11:48.183Z,13.25
2023-07-11T14:14:33.109Z,12.43
2023-07-11T14:17:04.189Z,9.05
2023-07-11T14:19:34.515Z,12.15
2023-07-11T14:22:03.644Z,7.05
2023-07-11T14:24:30.194Z,10.25
2023-07-11T14:26:56.709Z,9.13
2023-07-11T14:29:26.470Z,9.75
2023-07-11T14:31:54.134Z,8.00
2023-07-11T14:34:28.043Z,11.65
2023-07-11T14:36:55.233Z,13.48
2023-07-11T14:39:22.228Z,9.48
2023-07-11T14:41:50.501Z,9.55
2023-07-11T14:44:27.117Z,10.20
2023-07-11T14:46:54.238Z,6.88
2023-07-11T14:49:21.430Z,5.68
2023-07-11T14:51:49.100Z,9.07
2023-07-11T14:54:21.555Z,8.90
2023-07-11T14:59:29.439Z,8.20
2023-07-11T15:02:03.587Z,7.80
2023-07-11T15:17:25.959Z,9.05
2023-07-11T15:19:52.641Z,7.32
2023-07-11T15:22:21.852Z,11.35
2023-07-11T15:24:56.830Z,7.82
2023-07-11T15:27:23.732Z,13.85
2023-07-11T15:29:50.181Z,7.20
2023-07-11T15:32:21.590Z,7.03
2023-07-11T15:34:48.547Z,6.30
2023-07-11T15:37:15.859Z,9.75
2023-07-11T15:39:43.911Z,7.70
2023-07-11T15:42:24.736Z,10.57
2023-07-11T15:44:53.541Z,8.02
2023-07-11T15:47:20.463Z,8.98
2023-07-11T15:49:47.687Z,8.40
2023-07-11T15:52:14.752Z,5.57
2023-07-11T15:54:41.694Z,8.45
2023-07-11T15:57:26.475Z,8.65
2023-07-11T15:59:53.030Z,6.07
2023-07-11T16:02:22.278Z,8.13
2023-07-11T16:04:48.776Z,8.07
2023-07-11T16:07:16.668Z,6.05
2023-07-11T16:09:43.175Z,3.92
2023-07-11T16:12:12.912Z,4.90
2023-07-11T16:14:40.111Z,8.57
2023-07-11T16:17:18.975Z,7.03
2023-07-11T16:19:52.032Z,10.18
2023-07-11T16:22:21.553Z,6.75
2023-07-11T16:24:48.265Z,8.07
2023-07-11T16:27:18.341Z,5.50
2023-07-11T16:29:46.362Z,8.20
2023-07-11T16:32:14.552Z,4.65
2023-07-11T16:34:41.715Z,6.68
2023-07-11T16:37:19.877Z,6.55
2023-07-11T16:39:47.865Z,6.50
2023-07-11T16:42:22.817Z,7.18
2023-07-11T16:44:49.708Z,5.72
2023-07-11T16:47:17.153Z,4.70
2023-07-11T16:49:49.182Z,8.90
2023-07-11T16:52:15.871Z,6.40
2023-07-11T16:54:42.347Z,7.38
2023-07-11T16:57:19.177Z,6.18
2023-07-11T16:59:46.328Z,11.23
2023-07-11T17:02:21.870Z,9.90
2023-07-11T17:04:52.537Z,6.13
2023-07-11T17:07:19.411Z,12.10
2023-07-11T17:09:45.916Z,5.57
2023-07-11T17:12:13.313Z,6.25
2023-07-11T17:14:40.337Z,6.20
2023-07-11T17:17:16.021Z,5.95
2023-07-11T17:19:42.535Z,7.13
2023-07-11T17:22:13.681Z,9.55
2023-07-11T17:27:13.559Z,4.78
2023-07-11T17:29:40.096Z,6.22
2023-07-11T17:32:11.782Z,6.68
2023-07-11T17:34:38.515Z,7.38
2023-07-11T17:37:12.381Z,8.13
2023-07-11T17:39:39.227Z,4.28
2023-07-11T17:42:08.777Z,6.93
2023-07-11T17:49:52.569Z,4.15
2023-07-11T17:52:23.676Z,5.63
2023-07-11T17:54:50.149Z,6.53
2023-07-11T17:57:19.241Z,6.55
2023-07-11T17:59:45.827Z,8.82
2023-07-11T18:02:26.985Z,8.10
2023-07-11T18:04:57.757Z,6.63
2023-07-11T18:07:27.181Z,7.60
2023-07-11T18:09:53.781Z,7.15
2023-07-11T18:12:27.920Z,6.07
2023-07-11T18:14:54.689Z,4.93
2023-07-11T18:17:27.759Z,5.63
2023-07-11T18:19:54.612Z,9.48
2023-07-11T18:22:23.844Z,5.15
2023-07-11T18:24:51.328Z,7.30
2023-07-11T18:27:27.444Z,4.68
2023-07-11T18:29:56.046Z,9.80
2023-07-11T18:32:23.441Z,7.25
2023-07-11T18:34:52.743Z,5.43
2023-07-11T18:37:19.606Z,5.25
2023-07-11T18:39:48.887Z,6.97
2023-07-11T18:42:21.208Z,7.10
2023-07-11T18:44:50.597Z,6.47
2023-07-11T18:47:30.469Z,7.00
2023-07-11T18:49:57.008Z,4.47
2023-07-11T18:52:25.114Z,3.58
2023-07-11T18:54:53.126Z,7.47
2023-07-11T18:57:21.535Z,3.75
2023-07-11T18:59:48.888Z,6.07
2023-07-11T19:02:16.791Z,6.78
2023-07-11T19:04:44.672Z,5.38
2023-07-11T19:07:14.184Z,6.13
2023-07-11T19:09:45.171Z,4.57
2023-07-11T19:12:35.838Z,5.20
2023-07-11T19:15:06.362Z,4.22
2023-07-11T19:17:38.643Z,2.33
2023-07-11T19:20:17.324Z,2.63
2023-07-11T19:22:45.283Z,3.40
2023-07-11T19:25:17.278Z,3.90
2023-07-11T19:27:46.297Z,3.03
2023-07-11T19:30:17.437Z,4.72
2023-07-11T19:32:45.968Z,3.85
2023-07-11T19:35:13.654Z,3.97
2023-07-11T19:37:46.390Z,2.30
2023-07-11T19:40:18.089Z,3.05
2023-07-11T19:42:44.806Z,3.75
2023-07-11T19:45:13.591Z,3.92
2023-07-11T19:47:40.094Z,2.33
2023-07-11T19:50:18.427Z,2.92
2023-07-11T19:52:44.912Z,4.15
2023-07-11T19:55:11.400Z,4.72
2023-07-11T19:57:37.979Z,2.95
2023-07-11T20:00:21.773Z,3.28
2023-07-11T20:02:49.282Z,5.38
2023-07-11T20:05:16.459Z,4.03
2023-07-11T20:07:43.161Z,4.03
2023-07-11T20:10:37.754Z,17.23
2023-07-11T20:13:06.532Z,3.83
2023-07-11T20:15:35.002Z,2.95
2023-07-11T20:18:01.572Z,3.25
2023-07-11T20:20:31.687Z,3.55
2023-07-11T20:22:58.400Z,3.67
2023-07-11T20:25:25.391Z,2.38
2023-07-11T20:27:55.132Z,4.25
2023-07-11T20:30:29.007Z,2.58
2023-07-11T20:32:55.515Z,4.43
2023-07-11T20:35:22.033Z,3.40
2023-07-11T20:37:48.788Z,5.63
2023-07-11T20:40:24.314Z,3.58
2023-07-11T20:42:51.266Z,4.00
2023-07-11T20:45:19.956Z,3.63
2023-07-11T20:47:47.142Z,4.22
2023-07-11T20:50:40.035Z,4.60
2023-07-11T20:53:07.493Z,4.57
2023-07-11T20:55:36.914Z,3.92
2023-07-11T20:58:11.008Z,4.25
2023-07-11T21:00:39.805Z,4.45
2023-07-11T21:03:06.356Z,5.93
2023-07-11T21:05:35.950Z,4.28
2023-07-11T21:08:02.941Z,6.15
2023-07-11T21:10:41.326Z,5.68
2023-07-11T21:13:12.534Z,4.97
2023-07-11T21:15:40.037Z,4.60
2023-07-11T21:18:09.815Z,3.58
2023-07-11T21:20:41.399Z,4.45
2023-07-11T21:23:08.319Z,3.08
2023-07-11T21:25:36.572Z,4.40
2023-07-11T21:28:06.572Z,5.50
2023-07-11T21:30:41.865Z,4.03
2023-07-11T21:33:11.032Z,7.07
2023-07-11T21:35:38.548Z,3.55
2023-07-11T21:38:05.977Z,4.13
2023-07-11T21:40:36.287Z,7.10
2023-07-11T21:43:04.093Z,4.80
2023-07-11T21:45:36.478Z,5.15
2023-07-11T21:48:04.175Z,5.65
2023-07-11T21:50:45.250Z,4.80
2023-07-11T21:53:13.647Z,4.88
2023-07-11T21:55:42.429Z,6.28
2023-07-11T21:58:17.727Z,4.28
2023-07-11T22:00:45.004Z,5.78
2023-07-11T22:03:16.373Z,4.68
2023-07-11T22:08:13.193Z,4.72
2023-07-11T22:10:39.755Z,8.93
2023-07-11T22:13:06.724Z,3.67
2023-07-11T22:15:33.288Z,5.05
2023-07-11T22:18:00.874Z,6.13
2023-07-11T22:20:38.829Z,4.63
2023-07-11T22:23:06.248Z,5.03
2023-07-11T22:25:33.176Z,5.60
2023-07-11T22:27:59.826Z,5.70
2023-07-11T22:30:29.208Z,4.95
2023-07-11T22:32:57.089Z,5.05
2023-07-11T22:35:26.682Z,2.92
2023-07-11T22:37:54.840Z,5.78
2023-07-11T22:40:34.671Z,4.63
2023-07-11T22:43:18.579Z,5.13
2023-07-11T22:45:46.739Z,4.82
2023-07-11T22:48:14.638Z,5.05
2023-07-11T22:50:49.354Z,4.80
2023-07-11T22:53:22.242Z,5.28
2023-07-11T22:55:56.953Z,6.75
2023-07-11T22:58:26.932Z,3.63
2023-07-11T23:00:55.310Z,4.47
2023-07-11T23:03:22.587Z,4.55
2023-07-11T23:05:49.571Z,7.40
2023-07-11T23:08:24.925Z,5.88
2023-07-11T23:10:51.468Z,3.05
2023-07-11T23:13:18.279Z,4.40
2023-07-11T23:15:51.901Z,5.60
2023-07-11T23:18:20.947Z,5.55
2023-07-11T23:20:53.420Z,5.03
2023-07-11T23:23:24.954Z,6.30
2023-07-11T23:25:52.485Z,5.53
2023-07-11T23:28:27.833Z,5.78
2023-07-11T23:30:56.375Z,5.93
2023-07-11T23:33:24.836Z,7.22
2023-07-11T23:35:52.849Z,5.18
2023-07-11T23:38:19.267Z,2.92
2023-07-11T23:40:47.933Z,4.97
2023-07-11T23:43:22.059Z,9.13
2023-07-11T23:45:51.287Z,6.40
2023-07-11T23:48:17.929Z,7.53
2023-07-11T23:50:46.772Z,10.07
2023-07-11T23:53:13.240Z,7.15
2023-07-11T23:55:39.738Z,3.83
2023-07-11T23:58:14.197Z,5.75
